Alexandria International Airport Alexandria US
ICAO: KAEX
IATA: AEX
Category: Medium
Scheduled Services: Yes

Elevation: 89 ft
TransAlt. 18000 ft.

Airport Communications:
POLK APP/DEP:132.05
ASOS:123.975
CLNC DEL:121.9
CTAF:127.35
GND:121.9
TWR:127.35

KAEX Zoom In..

Runways:

(A) RW 14 length 9352 ft width 150 ft
ILS 110.10 / hdg 141

(B) RW 18 length 7001 ft width 150 ft
---- / hdg 186

(C) RW 32 length 9352 ft width 150 ft
ILS 110.10 / hdg 321

(D) RW 36 length 7001 ft width 150 ft
---- / hdg 6

Location; KAEX
Day. 26 / Time. 13.53 Zulu
* Altimeter: 29.87
* Temperature: 24° c. 75.2°f.
* Wind from: 160° Speed 05 kn.
Dewpoint: 23° c.
Visibility: 7 Statute Miles.
Clouds: Scattered 600 ft.

KAEX 261353Z 16005KT 7SM SCT006 24/23 A2987 RMK AO2 RAB08E26 SLP116 P0000 T02440228


Wind From 160°
Speed 05 kn.

 
 
jpsmedia.com for Web Design SOUNDCLOUD worldairports.se 2018   terms of use